EWK weather

Newton City-County Airport
Newton, Kansas, United States

Public forecast

Using degrees Fahrenheit for public forecast. Weather courtesy of forecast.io.

Current aviation weather report (METAR) for Newton City-County Airport

Retrieved 2019/10/23 10:56 UTC (28 minutes ago):

KEWK 231056Z AUTO 20012KT 10SM CLR 11/M02 A2989 RMK AO2 SLP117 T01061017

Closest aviation forecast (TAF) to Newton City-County Airport

Closest forecast is Wichita Eisenhower National Airport, 25.6 nm (47.5 km) SSW. Retrieved 2019/10/23 06:22 UTC (5 hours ago):

TAF KICT 230520Z 2306/2406 20007KT P6SM BKN200 FM230800 21011KT P6SM BKN200 WS020/23045KT FM231300 22008KT P6SM SCT200 FM231600 25009KT P6SM SCT200 FM232000 35010KT P6SM SCT250 FM240000 02007KT P6SM SCT200